Time;durP1;ratioP1;P1;durP2;ratioP2;P2;SDS_P1;SDS_P2;PMS_P1;PMS_P2;Temp;Humidity;BMP_temperature;BMP_pressure;BME280_temperature;BME280_humidity;BME280_pressure;Samples;Min_cycle;Max_cycle;Signal;HPM_P1;HPM_P2
2022/03/23 00:00:35;;;;;;;6.37;4.23;;;;;;;;;;5116713;28;20228;-74
2022/03/23 00:03:04;;;;;;;8.73;4.87;;;;;;;;;;5105712;28;20201;-74
2022/03/23 00:05:32;;;;;;;8.60;4.67;;;;;;;;;;5109266;28;20251;-74
2022/03/23 00:08:02;;;;;;;6.40;4.70;;;;;;;;;;5110643;28;20220;-74
2022/03/23 00:10:30;;;;;;;9.70;6.50;;;;;;;;;;5113678;28;20255;-74
2022/03/23 00:12:59;;;;;;;8.30;4.47;;;;;;;;;;5113795;28;20675;-74
2022/03/23 00:15:27;;;;;;;6.67;5.10;;;;;;;;;;5104774;28;20257;-74
2022/03/23 00:17:56;;;;;;;6.63;4.40;;;;;;;;;;5107291;28;20657;-74
2022/03/23 00:20:24;;;;;;;8.70;4.40;;;;;;;;;;5110574;28;20314;-74
2022/03/23 00:22:52;;;;;;;9.87;4.43;;;;;;;;;;5107307;28;20225;-74
2022/03/23 00:25:22;;;;;;;6.90;4.93;;;;;;;;;;5112315;28;20312;-74
2022/03/23 00:27:50;;;;;;;5.63;4.30;;;;;;;;;;5113843;28;20234;-75
2022/03/23 00:30:18;;;;;;;7.20;4.23;;;;;;;;;;5106738;28;20256;-74
2022/03/23 00:32:46;;;;;;;7.53;4.50;;;;;;;;;;5110187;28;20228;-74
2022/03/23 00:35:14;;;;;;;6.67;4.20;;;;;;;;;;5112121;28;20235;-74
2022/03/23 00:37:43;;;;;;;8.70;4.67;;;;;;;;;;5107785;28;20237;-74
2022/03/23 00:40:11;;;;;;;6.87;4.63;;;;;;;;;;5112899;28;20656;-74
2022/03/23 00:42:40;;;;;;;7.20;4.53;;;;;;;;;;5112461;28;20236;-74
2022/03/23 00:45:11;;;;;;;8.10;4.50;;;;;;;;;;5112988;28;20236;-74
2022/03/23 00:47:39;;;;;;;4.70;3.93;;;;;;;;;;5104481;28;20213;-74
2022/03/23 00:50:08;;;;;;;9.17;4.50;;;;;;;;;;5101388;28;20771;-74
2022/03/23 00:52:37;;;;;;;7.83;4.70;;;;;;;;;;5106794;28;20236;-74
2022/03/23 00:55:08;;;;;;;7.67;4.00;;;;;;;;;;5109901;28;20197;-74
2022/03/23 00:57:36;;;;;;;5.53;3.93;;;;;;;;;;5107856;28;20204;-74
2022/03/23 01:00:09;;;;;;;8.80;4.47;;;;;;;;;;5110212;28;20304;-74
2022/03/23 01:02:37;;;;;;;7.23;4.33;;;;;;;;;;5110351;28;20224;-74
2022/03/23 01:05:05;;;;;;;10.73;4.53;;;;;;;;;;5103683;28;20208;-74
2022/03/23 01:07:33;;;;;;;6.33;4.10;;;;;;;;;;5107638;28;20201;-74
2022/03/23 01:10:01;;;;;;;6.00;4.23;;;;;;;;;;5101063;28;20772;-74
2022/03/23 01:12:29;;;;;;;4.70;4.03;;;;;;;;;;5113101;28;20225;-74
2022/03/23 01:14:57;;;;;;;6.93;3.90;;;;;;;;;;5105112;28;20225;-74
2022/03/23 01:17:27;;;;;;;6.67;4.03;;;;;;;;;;5109591;28;20636;-74
2022/03/23 01:19:55;;;;;;;7.17;4.07;;;;;;;;;;5109038;28;20687;-74
2022/03/23 01:22:23;;;;;;;5.40;3.93;;;;;;;;;;5109964;28;20287;-74
2022/03/23 01:24:51;;;;;;;5.30;3.97;;;;;;;;;;5109164;28;20637;-74
2022/03/23 01:27:19;;;;;;;6.57;4.43;;;;;;;;;;5111369;28;20707;-74
2022/03/23 01:29:47;;;;;;;10.40;4.10;;;;;;;;;;5107454;28;20289;-74
2022/03/23 01:32:15;;;;;;;5.57;3.93;;;;;;;;;;5099959;28;20283;-74
2022/03/23 01:34:44;;;;;;;5.10;3.67;;;;;;;;;;5104472;28;20563;-74
2022/03/23 01:37:12;;;;;;;7.27;5.03;;;;;;;;;;5111008;28;20284;-74
2022/03/23 01:39:40;;;;;;;9.27;3.63;;;;;;;;;;5109131;28;20261;-74
2022/03/23 01:42:08;;;;;;;9.40;4.07;;;;;;;;;;5110793;28;20285;-74
2022/03/23 01:44:36;;;;;;;5.40;3.70;;;;;;;;;;5112134;28;20284;-74
2022/03/23 01:47:07;;;;;;;7.33;4.00;;;;;;;;;;5112592;28;20252;-74
2022/03/23 01:49:35;;;;;;;7.00;3.93;;;;;;;;;;5103306;28;20229;-74
2022/03/23 01:52:06;;;;;;;6.07;3.97;;;;;;;;;;5110455;28;20651;-74
2022/03/23 01:54:35;;;;;;;4.20;3.80;;;;;;;;;;5114572;28;20295;-74
2022/03/23 01:57:04;;;;;;;8.23;3.90;;;;;;;;;;5104821;28;20313;-74
2022/03/23 01:59:32;;;;;;;8.50;4.03;;;;;;;;;;5117115;28;20229;-74
2022/03/23 02:02:01;;;;;;;7.20;3.33;;;;;;;;;;5116247;28;20229;-74
2022/03/23 02:04:29;;;;;;;4.93;4.00;;;;;;;;;;5116050;28;20201;-74
2022/03/23 02:06:57;;;;;;;9.47;4.13;;;;;;;;;;5115887;28;20252;-74
2022/03/23 02:09:27;;;;;;;5.47;3.70;;;;;;;;;;5107764;28;20288;-74
2022/03/23 02:11:56;;;;;;;6.30;4.13;;;;;;;;;;5112012;28;20685;-74
2022/03/23 02:14:24;;;;;;;7.00;3.90;;;;;;;;;;5106713;28;20653;-74
2022/03/23 02:16:53;;;;;;;7.57;5.23;;;;;;;;;;5119162;28;20227;-75
2022/03/23 02:19:21;;;;;;;7.73;4.80;;;;;;;;;;5111236;28;20297;-74
2022/03/23 02:21:52;;;;;;;7.20;5.13;;;;;;;;;;5111842;28;20683;-74
2022/03/23 02:24:22;;;;;;;6.43;5.10;;;;;;;;;;5104903;28;20205;-74
2022/03/23 02:26:51;;;;;;;7.40;5.37;;;;;;;;;;5114832;28;20324;-74
2022/03/23 02:29:19;;;;;;;11.30;6.13;;;;;;;;;;5115291;28;20236;-74
2022/03/23 02:31:47;;;;;;;9.80;5.80;;;;;;;;;;5113885;28;20303;-74
2022/03/23 02:34:16;;;;;;;9.90;6.00;;;;;;;;;;5108418;28;20286;-74
2022/03/23 02:36:45;;;;;;;11.30;6.80;;;;;;;;;;5106768;28;20783;-74
2022/03/23 02:39:14;;;;;;;12.07;6.17;;;;;;;;;;5115844;28;20197;-74
2022/03/23 02:41:42;;;;;;;10.00;6.27;;;;;;;;;;5114695;28;20232;-74
2022/03/23 02:44:13;;;;;;;7.03;5.83;;;;;;;;;;5103943;28;20229;-75
2022/03/23 02:46:41;;;;;;;16.47;7.47;;;;;;;;;;5106213;28;20253;-74
2022/03/23 02:49:09;;;;;;;11.90;6.40;;;;;;;;;;5114915;28;20236;-74
2022/03/23 02:51:37;;;;;;;12.27;7.00;;;;;;;;;;5107882;28;20308;-74
2022/03/23 03:02:39;;;;;;;10.73;6.70;;;;;;;;;;5044615;28;20736;-74
2022/03/23 03:05:09;;;;;;;8.90;5.23;;;;;;;;;;5101204;28;20292;-74
2022/03/23 03:10:19;;;;;;;8.17;5.53;;;;;;;;;;5114175;28;20210;-74
2022/03/23 03:12:49;;;;;;;8.47;5.50;;;;;;;;;;5115731;28;20259;-74
2022/03/23 03:15:18;;;;;;;7.53;5.47;;;;;;;;;;5115295;28;20767;-74
2022/03/23 03:17:47;;;;;;;11.73;6.47;;;;;;;;;;5117019;28;20221;-74
2022/03/23 03:20:16;;;;;;;13.53;7.40;;;;;;;;;;5116188;28;20198;-74
2022/03/23 03:22:46;;;;;;;10.93;7.10;;;;;;;;;;5117378;28;20279;-74
2022/03/23 03:25:14;;;;;;;10.70;7.60;;;;;;;;;;5115981;28;20257;-74
2022/03/23 03:27:45;;;;;;;10.97;7.47;;;;;;;;;;5117752;28;20568;-74
2022/03/23 03:30:20;;;;;;;14.00;7.90;;;;;;;;;;5116532;28;20232;-74
2022/03/23 03:32:49;;;;;;;10.93;7.40;;;;;;;;;;5117070;28;20220;-74
2022/03/23 03:35:16;;;;;;;13.17;7.70;;;;;;;;;;5116663;28;20224;-74
2022/03/23 03:37:44;;;;;;;9.50;7.70;;;;;;;;;;5117914;28;20279;-74
2022/03/23 03:40:13;;;;;;;8.63;6.73;;;;;;;;;;5117327;28;20645;-74
2022/03/23 03:42:41;;;;;;;11.53;7.30;;;;;;;;;;5113062;28;20193;-74
2022/03/23 03:45:10;;;;;;;14.47;8.17;;;;;;;;;;5115127;28;20207;-74
2022/03/23 03:47:40;;;;;;;10.40;6.90;;;;;;;;;;5113197;28;20237;-74
2022/03/23 03:50:09;;;;;;;11.70;7.60;;;;;;;;;;5115922;28;20280;-74
2022/03/23 03:52:37;;;;;;;10.50;7.07;;;;;;;;;;5110779;28;20662;-74
2022/03/23 03:55:05;;;;;;;11.37;7.63;;;;;;;;;;5115164;28;20675;-74
2022/03/23 03:57:34;;;;;;;9.27;7.03;;;;;;;;;;5114556;28;20203;-74
2022/03/23 04:00:02;;;;;;;11.20;6.90;;;;;;;;;;5116108;28;20352;-74
2022/03/23 04:02:30;;;;;;;11.43;8.20;;;;;;;;;;5111927;28;20641;-74
2022/03/23 04:04:59;;;;;;;11.03;7.43;;;;;;;;;;5109647;28;20683;-74
2022/03/23 04:07:27;;;;;;;12.10;7.27;;;;;;;;;;5110583;28;20288;-74
2022/03/23 04:09:55;;;;;;;12.03;7.50;;;;;;;;;;5114448;28;20233;-74
2022/03/23 04:12:23;;;;;;;9.67;6.83;;;;;;;;;;5112546;28;20908;-74
2022/03/23 04:14:51;;;;;;;11.43;7.50;;;;;;;;;;5112847;28;20261;-74
2022/03/23 04:17:19;;;;;;;11.93;7.47;;;;;;;;;;5116447;28;20256;-74
2022/03/23 04:19:47;;;;;;;13.10;6.83;;;;;;;;;;5112334;28;20474;-74
2022/03/23 04:22:16;;;;;;;11.03;7.20;;;;;;;;;;5110944;28;20236;-74
2022/03/23 04:24:44;;;;;;;9.07;6.57;;;;;;;;;;5113180;28;20232;-74
2022/03/23 04:27:12;;;;;;;10.53;7.93;;;;;;;;;;5107605;28;20313;-74
2022/03/23 04:29:41;;;;;;;10.60;7.47;;;;;;;;;;5101922;28;20229;-74
2022/03/23 04:32:10;;;;;;;12.93;7.10;;;;;;;;;;5106554;28;20252;-74
2022/03/23 04:34:38;;;;;;;9.87;6.87;;;;;;;;;;5112624;28;20273;-74
2022/03/23 04:37:06;;;;;;;11.00;6.67;;;;;;;;;;5101442;28;20256;-74
2022/03/23 04:39:35;;;;;;;9.67;5.90;;;;;;;;;;5112538;28;20236;-74
2022/03/23 04:42:03;;;;;;;10.97;6.70;;;;;;;;;;5104629;28;20660;-74
2022/03/23 04:44:31;;;;;;;11.80;6.90;;;;;;;;;;5105389;28;20280;-74
2022/03/23 04:46:59;;;;;;;9.30;6.03;;;;;;;;;;5101363;28;20245;-74
2022/03/23 04:49:27;;;;;;;9.00;6.57;;;;;;;;;;5110659;28;20486;-74
2022/03/23 04:51:55;;;;;;;10.00;6.23;;;;;;;;;;5099308;28;20256;-74
2022/03/23 04:54:23;;;;;;;9.33;6.70;;;;;;;;;;5109826;28;20232;-74
2022/03/23 04:56:53;;;;;;;11.47;6.90;;;;;;;;;;5103850;28;20500;-75
2022/03/23 04:59:21;;;;;;;8.53;6.40;;;;;;;;;;5111989;28;20696;-75
2022/03/23 05:01:49;;;;;;;11.03;6.57;;;;;;;;;;5103744;28;20225;-75
2022/03/23 05:04:18;;;;;;;9.90;6.00;;;;;;;;;;5109468;28;20201;-75
2022/03/23 05:06:46;;;;;;;8.97;5.90;;;;;;;;;;5103704;28;20311;-75
2022/03/23 05:09:14;;;;;;;9.27;6.97;;;;;;;;;;5104898;28;20197;-75
2022/03/23 05:11:42;;;;;;;10.63;6.37;;;;;;;;;;5104452;28;20728;-74
2022/03/23 05:14:11;;;;;;;8.93;6.13;;;;;;;;;;5100967;28;20197;-74
2022/03/23 05:16:39;;;;;;;14.53;7.10;;;;;;;;;;5102853;28;20253;-75
2022/03/23 05:19:07;;;;;;;9.97;6.00;;;;;;;;;;5116775;27;20648;-75
2022/03/23 05:21:35;;;;;;;9.77;6.63;;;;;;;;;;5115313;28;20204;-74
2022/03/23 05:24:03;;;;;;;10.50;6.70;;;;;;;;;;5114193;28;20225;-75
2022/03/23 05:26:31;;;;;;;11.60;6.43;;;;;;;;;;5110231;28;20253;-74
2022/03/23 05:28:59;;;;;;;10.60;7.80;;;;;;;;;;5112561;28;20304;-75
2022/03/23 05:31:29;;;;;;;10.73;7.17;;;;;;;;;;5112630;28;20200;-75
2022/03/23 05:33:57;;;;;;;10.53;7.40;;;;;;;;;;5112036;28;20271;-74
2022/03/23 05:36:25;;;;;;;11.23;6.60;;;;;;;;;;5110607;28;20659;-75
2022/03/23 05:38:53;;;;;;;13.43;7.27;;;;;;;;;;5098572;28;20194;-75
2022/03/23 05:41:22;;;;;;;10.40;6.83;;;;;;;;;;5101893;28;20611;-75
2022/03/23 05:43:50;;;;;;;9.63;6.93;;;;;;;;;;5109553;28;20237;-75
2022/03/23 05:46:18;;;;;;;11.67;7.43;;;;;;;;;;5098730;28;20252;-75
2022/03/23 05:48:47;;;;;;;15.60;7.20;;;;;;;;;;5099625;28;20243;-75
2022/03/23 05:51:16;;;;;;;14.17;7.93;;;;;;;;;;5101220;28;20632;-75
2022/03/23 05:53:44;;;;;;;15.80;8.30;;;;;;;;;;5100912;28;20347;-75
2022/03/23 05:56:12;;;;;;;10.50;8.10;;;;;;;;;;5098139;28;20313;-75
2022/03/23 05:58:39;;;;;;;14.53;8.33;;;;;;;;;;5099248;28;20261;-74
2022/03/23 06:01:07;;;;;;;16.33;8.83;;;;;;;;;;5111478;28;20287;-75
2022/03/23 06:03:36;;;;;;;12.53;8.17;;;;;;;;;;5109100;28;20203;-74
2022/03/23 06:06:06;;;;;;;14.97;8.17;;;;;;;;;;5114256;28;20266;-75
2022/03/23 06:08:34;;;;;;;15.40;8.90;;;;;;;;;;5110749;28;20636;-75
2022/03/23 06:11:02;;;;;;;12.00;9.03;;;;;;;;;;5113094;28;20239;-75
2022/03/23 06:13:30;;;;;;;17.50;8.90;;;;;;;;;;5114312;28;20312;-75
2022/03/23 06:15:58;;;;;;;16.10;10.60;;;;;;;;;;5115285;28;20253;-70
2022/03/23 06:18:26;;;;;;;25.13;14.27;;;;;;;;;;5112573;28;20193;-69
2022/03/23 06:20:54;;;;;;;15.37;10.53;;;;;;;;;;5111406;28;20204;-70
2022/03/23 06:23:24;;;;;;;19.27;12.57;;;;;;;;;;5108994;28;20718;-70
2022/03/23 06:25:59;;;;;;;17.03;10.30;;;;;;;;;;5099917;28;20300;-69
2022/03/23 06:28:27;;;;;;;14.03;10.80;;;;;;;;;;5107046;28;20208;-69
2022/03/23 06:30:57;;;;;;;12.40;8.60;;;;;;;;;;5105071;28;20201;-70
2022/03/23 06:33:25;;;;;;;14.63;9.03;;;;;;;;;;5110503;28;20679;-70
2022/03/23 06:35:53;;;;;;;19.57;9.93;;;;;;;;;;5108740;28;20221;-69
2022/03/23 06:38:22;;;;;;;13.07;9.03;;;;;;;;;;5114177;28;20231;-68
2022/03/23 06:40:51;;;;;;;14.90;10.40;;;;;;;;;;5116507;28;20204;-68
2022/03/23 06:43:19;;;;;;;14.43;10.07;;;;;;;;;;5112842;28;20286;-69
2022/03/23 06:45:47;;;;;;;13.87;8.97;;;;;;;;;;5115098;28;20252;-67
2022/03/23 06:48:15;;;;;;;20.37;10.70;;;;;;;;;;5112135;28;20255;-73
2022/03/23 06:50:43;;;;;;;16.47;9.97;;;;;;;;;;5107374;28;20225;-72
2022/03/23 06:53:11;;;;;;;14.43;10.80;;;;;;;;;;5112670;28;20620;-66
2022/03/23 06:55:40;;;;;;;14.93;9.83;;;;;;;;;;5103392;28;20262;-66
2022/03/23 06:58:09;;;;;;;12.60;8.90;;;;;;;;;;5107357;28;20337;-67
2022/03/23 07:00:38;;;;;;;23.63;11.03;;;;;;;;;;5109073;28;20265;-74
2022/03/23 07:03:06;;;;;;;15.07;8.77;;;;;;;;;;5102770;28;20198;-75
2022/03/23 07:05:36;;;;;;;16.10;9.20;;;;;;;;;;5117746;28;20233;-73
2022/03/23 07:10:54;;;;;;;12.57;9.80;;;;;;;;;;5115295;28;20223;-75
2022/03/23 07:13:24;;;;;;;18.27;10.33;;;;;;;;;;5113731;28;20251;-73
2022/03/23 07:15:52;;;;;;;16.07;9.83;;;;;;;;;;5116957;28;20263;-72
2022/03/23 07:18:25;;;;;;;12.47;9.30;;;;;;;;;;5114672;28;20204;-72
2022/03/23 07:20:53;;;;;;;13.90;9.27;;;;;;;;;;5109044;28;20201;-70
2022/03/23 07:23:21;;;;;;;16.50;9.67;;;;;;;;;;5118169;28;20197;-72
2022/03/23 07:25:49;;;;;;;13.97;9.17;;;;;;;;;;5116123;28;20309;-71
2022/03/23 07:28:17;;;;;;;15.90;8.80;;;;;;;;;;5116751;28;20205;-72
2022/03/23 07:30:47;;;;;;;15.07;8.80;;;;;;;;;;5108428;28;20230;-71
2022/03/23 07:33:15;;;;;;;14.53;9.33;;;;;;;;;;5107781;28;20236;-70
2022/03/23 07:35:43;;;;;;;15.77;9.70;;;;;;;;;;5110324;28;20281;-72
2022/03/23 07:38:11;;;;;;;14.13;9.53;;;;;;;;;;5119092;28;20229;-71
2022/03/23 07:40:39;;;;;;;13.87;9.13;;;;;;;;;;5118602;28;20208;-73
2022/03/23 07:43:07;;;;;;;19.63;11.73;;;;;;;;;;5112172;28;20736;-72
2022/03/23 07:45:36;;;;;;;15.57;8.30;;;;;;;;;;5104727;28;20224;-74
2022/03/23 07:48:06;;;;;;;13.77;10.00;;;;;;;;;;5103646;28;20293;-73
2022/03/23 07:50:34;;;;;;;20.10;10.40;;;;;;;;;;5118558;28;20261;-73
2022/03/23 07:53:02;;;;;;;20.87;10.07;;;;;;;;;;5118590;28;20216;-74
2022/03/23 07:55:30;;;;;;;13.60;9.43;;;;;;;;;;5119128;28;20248;-72
2022/03/23 07:58:01;;;;;;;17.83;9.27;;;;;;;;;;5117192;28;20262;-71
2022/03/23 08:00:30;;;;;;;16.97;10.73;;;;;;;;;;5113270;28;20209;-74
2022/03/23 08:02:58;;;;;;;15.80;10.60;;;;;;;;;;5110776;28;20197;-74
2022/03/23 08:05:29;;;;;;;14.50;10.70;;;;;;;;;;5114915;28;20233;-75
2022/03/23 08:07:56;;;;;;;14.97;10.80;;;;;;;;;;5111592;28;20718;-74
2022/03/23 08:10:25;;;;;;;17.10;10.20;;;;;;;;;;5113576;28;20266;-75
2022/03/23 08:12:53;;;;;;;17.50;11.77;;;;;;;;;;5115629;28;20193;-74
2022/03/23 08:15:24;;;;;;;20.13;11.57;;;;;;;;;;5111738;28;20224;-76
2022/03/23 08:17:52;;;;;;;14.10;10.30;;;;;;;;;;5115129;28;20208;-74
2022/03/23 08:20:35;;;;;;;18.80;10.97;;;;;;;;;;5107128;28;20723;-75
2022/03/23 08:23:06;;;;;;;15.93;9.10;;;;;;;;;;5106895;28;20208;-75
2022/03/23 08:25:37;;;;;;;14.77;8.97;;;;;;;;;;5112829;28;20251;-76
2022/03/23 08:28:06;;;;;;;13.67;9.80;;;;;;;;;;5109212;28;20215;-78
2022/03/23 08:30:35;;;;;;;13.37;8.70;;;;;;;;;;5112217;28;20599;-76
2022/03/23 08:33:03;;;;;;;16.33;9.50;;;;;;;;;;5104974;28;20287;-75
2022/03/23 08:35:35;;;;;;;18.27;10.17;;;;;;;;;;5114112;28;20227;-73
2022/03/23 08:38:03;;;;;;;14.97;8.20;;;;;;;;;;5107717;28;20225;-73
2022/03/23 08:40:33;;;;;;;14.40;9.37;;;;;;;;;;5115065;28;20228;-75
2022/03/23 08:43:01;;;;;;;18.53;9.43;;;;;;;;;;5117108;28;20233;-75
2022/03/23 08:45:29;;;;;;;16.77;9.73;;;;;;;;;;5116531;28;20243;-75
2022/03/23 08:47:57;;;;;;;15.57;10.30;;;;;;;;;;5117094;28;20235;-75
2022/03/23 08:50:25;;;;;;;20.70;10.03;;;;;;;;;;5113891;28;20288;-75
2022/03/23 08:52:54;;;;;;;18.43;9.60;;;;;;;;;;5111177;28;20792;-75
2022/03/23 08:55:23;;;;;;;12.83;9.03;;;;;;;;;;5109603;28;20395;-75
2022/03/23 08:57:53;;;;;;;16.33;7.87;;;;;;;;;;5112435;28;20203;-74
2022/03/23 09:00:21;;;;;;;15.67;7.47;;;;;;;;;;5112587;28;20228;-73
2022/03/23 09:02:49;;;;;;;15.93;8.47;;;;;;;;;;5114309;28;20224;-72
2022/03/23 09:05:19;;;;;;;22.40;9.17;;;;;;;;;;5112695;28;20238;-73
2022/03/23 09:07:47;;;;;;;18.03;8.73;;;;;;;;;;5109035;28;20197;-72
2022/03/23 09:10:16;;;;;;;12.37;7.90;;;;;;;;;;5103580;28;20233;-73
2022/03/23 09:12:44;;;;;;;13.23;7.33;;;;;;;;;;5117133;28;20235;-72
2022/03/23 09:15:15;;;;;;;16.03;7.90;;;;;;;;;;5111807;28;20247;-73
2022/03/23 09:17:43;;;;;;;10.50;7.20;;;;;;;;;;5112458;28;20222;-72
2022/03/23 09:20:12;;;;;;;13.53;7.37;;;;;;;;;;5114739;28;20755;-72
2022/03/23 09:22:40;;;;;;;16.57;7.67;;;;;;;;;;5112492;28;20229;-73
2022/03/23 09:25:09;;;;;;;12.20;7.23;;;;;;;;;;5113084;28;20229;-72
2022/03/23 09:27:38;;;;;;;14.20;8.20;;;;;;;;;;5113062;28;20224;-73
2022/03/23 09:30:07;;;;;;;12.83;7.60;;;;;;;;;;5115004;28;20201;-72
2022/03/23 09:32:37;;;;;;;18.13;7.73;;;;;;;;;;5113211;28;20231;-73
2022/03/23 09:35:05;;;;;;;15.47;8.60;;;;;;;;;;5109452;28;20334;-73
2022/03/23 09:40:24;;;;;;;15.67;8.60;;;;;;;;;;5114585;28;20280;-73
2022/03/23 09:42:59;;;;;;;10.57;6.83;;;;;;;;;;5114472;28;20636;-72
2022/03/23 09:45:46;;;;;;;11.10;6.67;;;;;;;;;;5114916;28;20266;-73
2022/03/23 09:48:17;;;;;;;8.87;5.70;;;;;;;;;;5116152;28;20204;-73
2022/03/23 09:50:46;;;;;;;11.07;6.00;;;;;;;;;;5113611;28;20236;-72
2022/03/23 09:53:14;;;;;;;13.13;5.57;;;;;;;;;;5113110;28;20197;-73
2022/03/23 09:55:43;;;;;;;11.60;6.10;;;;;;;;;;5107675;28;20256;-72
2022/03/23 09:58:11;;;;;;;9.73;6.33;;;;;;;;;;5111287;28;20229;-72
2022/03/23 10:00:40;;;;;;;9.97;5.70;;;;;;;;;;5116133;28;20197;-72
2022/03/23 10:03:26;;;;;;;10.97;5.10;;;;;;;;;;5103416;28;20270;-73
2022/03/23 10:06:21;;;;;;;9.80;6.53;;;;;;;;;;5114859;28;20235;-72
2022/03/23 10:09:06;;;;;;;11.47;5.77;;;;;;;;;;5064853;28;20243;-73
2022/03/23 10:12:07;;;;;;;11.67;5.90;;;;;;;;;;5103219;28;20236;-73
2022/03/23 10:14:53;;;;;;;8.77;5.07;;;;;;;;;;5037816;28;20326;-72
2022/03/23 10:17:39;;;;;;;15.87;6.73;;;;;;;;;;5004739;28;20227;-74
2022/03/23 10:20:07;;;;;;;8.63;5.40;;;;;;;;;;5091666;28;20232;-72
2022/03/23 10:22:35;;;;;;;12.80;6.27;;;;;;;;;;5111262;28;20197;-73
2022/03/23 10:25:10;;;;;;;9.50;5.53;;;;;;;;;;5110818;28;20650;-73
2022/03/23 10:27:38;;;;;;;11.17;6.33;;;;;;;;;;5109682;28;20193;-73
2022/03/23 10:30:07;;;;;;;11.23;6.37;;;;;;;;;;5110192;28;20236;-73
2022/03/23 10:32:36;;;;;;;12.63;6.87;;;;;;;;;;5117423;28;20638;-73
2022/03/23 10:35:05;;;;;;;9.53;6.93;;;;;;;;;;5109051;28;20259;-73
2022/03/23 10:37:34;;;;;;;10.37;6.40;;;;;;;;;;5118732;28;20287;-73
2022/03/23 10:40:03;;;;;;;8.47;7.37;;;;;;;;;;5109991;28;20236;-73
2022/03/23 10:42:34;;;;;;;10.93;6.70;;;;;;;;;;5116682;28;20228;-75
2022/03/23 10:45:09;;;;;;;9.07;6.00;;;;;;;;;;5103388;28;20219;-75
2022/03/23 10:47:38;;;;;;;16.93;7.23;;;;;;;;;;5103399;28;20206;-75
2022/03/23 10:50:08;;;;;;;8.33;6.30;;;;;;;;;;5112192;28;20224;-73
2022/03/23 10:52:36;;;;;;;11.33;6.77;;;;;;;;;;5107407;28;20233;-74
2022/03/23 10:55:06;;;;;;;11.83;5.90;;;;;;;;;;5113565;28;20656;-74
2022/03/23 10:57:47;;;;;;;12.00;6.20;;;;;;;;;;5104855;28;20201;-74
2022/03/23 11:00:16;;;;;;;10.77;7.17;;;;;;;;;;5110383;28;20312;-75
2022/03/23 11:02:47;;;;;;;10.03;6.40;;;;;;;;;;5103222;28;20226;-74
2022/03/23 11:05:29;;;;;;;13.13;6.53;;;;;;;;;;5103291;28;20213;-77
2022/03/23 11:08:06;;;;;;;8.60;6.63;;;;;;;;;;5107723;28;20254;-74
2022/03/23 11:16:09;;;;;;;9.90;6.93;;;;;;;;;;5110906;28;20343;-75
2022/03/23 11:18:38;;;;;;;11.10;7.83;;;;;;;;;;5115014;28;20280;-75
2022/03/23 11:21:06;;;;;;;13.77;7.57;;;;;;;;;;5117212;28;20225;-76
2022/03/23 11:23:35;;;;;;;15.40;7.10;;;;;;;;;;5109959;28;20267;-76
2022/03/23 11:26:04;;;;;;;9.73;7.00;;;;;;;;;;5117589;28;20579;-76
2022/03/23 11:28:35;;;;;;;12.80;7.33;;;;;;;;;;5107703;28;20239;-76
2022/03/23 11:31:04;;;;;;;10.90;6.60;;;;;;;;;;5107381;28;20229;-76
2022/03/23 11:33:34;;;;;;;14.40;7.83;;;;;;;;;;5117493;28;20325;-75
2022/03/23 11:36:02;;;;;;;12.73;7.57;;;;;;;;;;5108627;28;20261;-75
2022/03/23 11:38:30;;;;;;;11.10;6.77;;;;;;;;;;5111871;28;20236;-73
2022/03/23 11:40:59;;;;;;;11.17;7.60;;;;;;;;;;5106889;28;20209;-73
2022/03/23 11:43:29;;;;;;;9.97;7.23;;;;;;;;;;5118688;28;20228;-73
2022/03/23 11:46:20;;;;;;;12.63;7.20;;;;;;;;;;5107093;28;20221;-74
2022/03/23 11:48:55;;;;;;;10.70;7.47;;;;;;;;;;5111500;28;20231;-74
2022/03/23 11:51:33;;;;;;;10.30;7.30;;;;;;;;;;5102225;28;20642;-74
2022/03/23 11:54:07;;;;;;;12.17;7.00;;;;;;;;;;5101658;28;20248;-74
2022/03/23 11:56:39;;;;;;;9.30;7.47;;;;;;;;;;5109783;28;20357;-74
2022/03/23 11:59:20;;;;;;;11.83;7.00;;;;;;;;;;5112919;28;20236;-74
2022/03/23 12:01:51;;;;;;;12.90;8.13;;;;;;;;;;5117164;28;20232;-74
2022/03/23 12:04:20;;;;;;;9.83;7.73;;;;;;;;;;5106467;28;20196;-74
2022/03/23 12:06:57;;;;;;;13.03;8.10;;;;;;;;;;5117641;28;20641;-74
2022/03/23 12:09:32;;;;;;;11.27;7.57;;;;;;;;;;5115229;28;20232;-74
2022/03/23 12:12:00;;;;;;;9.73;7.87;;;;;;;;;;5117586;28;20232;-74
2022/03/23 12:14:29;;;;;;;11.33;7.53;;;;;;;;;;5113643;28;20281;-74
2022/03/23 12:17:15;;;;;;;12.10;6.97;;;;;;;;;;5112622;28;20303;-74
2022/03/23 12:20:00;;;;;;;13.20;6.60;;;;;;;;;;5110173;28;20209;-75
2022/03/23 12:22:41;;;;;;;10.63;7.17;;;;;;;;;;5101519;28;20229;-75
2022/03/23 12:25:12;;;;;;;12.03;8.20;;;;;;;;;;5117586;28;20228;-74
2022/03/23 12:27:43;;;;;;;10.50;7.43;;;;;;;;;;5118126;28;20223;-74
2022/03/23 12:30:14;;;;;;;17.87;7.47;;;;;;;;;;5115241;28;20778;-74
2022/03/23 12:32:42;;;;;;;11.37;6.87;;;;;;;;;;5107874;28;20197;-74
2022/03/23 12:35:11;;;;;;;10.83;7.13;;;;;;;;;;5113106;28;20224;-74
2022/03/23 12:37:41;;;;;;;9.00;6.83;;;;;;;;;;5104903;28;20245;-74
2022/03/23 12:40:10;;;;;;;12.20;7.23;;;;;;;;;;5112524;28;20232;-76
2022/03/23 12:42:42;;;;;;;12.10;6.70;;;;;;;;;;5108104;28;20276;-74
2022/03/23 12:45:11;;;;;;;9.93;6.77;;;;;;;;;;5115320;28;20624;-74
2022/03/23 12:47:48;;;;;;;11.27;7.03;;;;;;;;;;5113010;28;20315;-74
2022/03/23 12:58:35;;;;;;;11.00;7.33;;;;;;;;;;5111695;28;20331;-74
2022/03/23 13:01:11;;;;;;;12.20;7.97;;;;;;;;;;5117115;28;20734;-74
2022/03/23 13:03:57;;;;;;;12.90;7.00;;;;;;;;;;5105889;28;20231;-74
2022/03/23 13:06:36;;;;;;;10.37;7.10;;;;;;;;;;5116495;28;20224;-74
2022/03/23 13:09:09;;;;;;;9.07;7.10;;;;;;;;;;5103676;28;20205;-74
2022/03/23 13:11:37;;;;;;;10.60;6.90;;;;;;;;;;5113790;28;20285;-74
2022/03/23 13:14:06;;;;;;;8.77;6.83;;;;;;;;;;5102030;28;20248;-74
2022/03/23 13:16:36;;;;;;;8.60;7.23;;;;;;;;;;5111623;28;20228;-74
2022/03/23 13:19:06;;;;;;;9.73;6.90;;;;;;;;;;5100886;28;20209;-74
2022/03/23 13:21:34;;;;;;;17.80;7.20;;;;;;;;;;5114734;28;20227;-74
2022/03/23 13:24:04;;;;;;;9.30;6.17;;;;;;;;;;5106097;28;20366;-74
2022/03/23 13:26:34;;;;;;;9.57;7.13;;;;;;;;;;5106092;28;20252;-74
2022/03/23 13:29:07;;;;;;;8.97;7.00;;;;;;;;;;5103955;28;20205;-75
2022/03/23 13:31:36;;;;;;;9.70;6.80;;;;;;;;;;5107097;28;20200;-75
2022/03/23 13:34:05;;;;;;;7.70;6.87;;;;;;;;;;5110526;28;20240;-74
2022/03/23 13:36:34;;;;;;;12.73;6.83;;;;;;;;;;5107198;28;20225;-74
2022/03/23 13:39:06;;;;;;;11.97;7.00;;;;;;;;;;5095460;28;20288;-74
2022/03/23 13:44:54;;;;;;;9.00;6.63;;;;;;;;;;5109565;28;20296;-74
2022/03/23 13:47:08;;;;;;;11.70;6.47;;;;;;;;;;5120553;28;20246;-74
2022/03/23 13:49:41;;;;;;;9.37;7.37;;;;;;;;;;5111649;28;20224;-74
2022/03/23 13:52:11;;;;;;;10.27;7.13;;;;;;;;;;5117283;28;20197;-74
2022/03/23 13:54:40;;;;;;;9.50;7.10;;;;;;;;;;5116079;28;20196;-71
2022/03/23 13:57:09;;;;;;;10.10;7.17;;;;;;;;;;5120709;28;20776;-72
2022/03/23 13:59:37;;;;;;;9.43;7.03;;;;;;;;;;5120750;28;20283;-73
2022/03/23 14:02:05;;;;;;;12.53;9.50;;;;;;;;;;5109017;28;20312;-72
2022/03/23 14:04:38;;;;;;;10.67;7.50;;;;;;;;;;5103885;28;20292;-73
2022/03/23 14:07:06;;;;;;;10.53;6.63;;;;;;;;;;5112554;28;20221;-72
2022/03/23 14:09:38;;;;;;;9.87;6.93;;;;;;;;;;5111276;28;20201;-73
2022/03/23 14:12:10;;;;;;;8.90;6.93;;;;;;;;;;5106836;28;21758;-72
2022/03/23 14:14:43;;;;;;;9.03;7.17;;;;;;;;;;5112333;28;20197;-73
2022/03/23 14:17:16;;;;;;;8.90;6.63;;;;;;;;;;5106540;28;20274;-73
2022/03/23 14:19:45;;;;;;;9.90;6.63;;;;;;;;;;5113355;28;20205;-73
2022/03/23 14:22:15;;;;;;;10.90;6.60;;;;;;;;;;5119883;28;20205;-75
2022/03/23 14:24:44;;;;;;;7.73;5.80;;;;;;;;;;5114917;28;20225;-74
2022/03/23 14:27:24;;;;;;;8.83;6.70;;;;;;;;;;5107074;28;20261;-72
2022/03/23 14:30:15;;;;;;;7.37;6.13;;;;;;;;;;5116160;28;20224;-72
2022/03/23 14:32:45;;;;;;;9.93;6.37;;;;;;;;;;5111162;28;20228;-73
2022/03/23 14:35:17;;;;;;;10.23;7.20;;;;;;;;;;5112879;28;20284;-73
2022/03/23 14:37:46;;;;;;;7.90;5.77;;;;;;;;;;5113660;28;20214;-73
2022/03/23 14:40:23;;;;;;;10.10;6.47;;;;;;;;;;5104322;28;20213;-73
2022/03/23 14:42:52;;;;;;;8.00;5.87;;;;;;;;;;5110946;28;20635;-73
2022/03/23 14:45:42;;;;;;;8.40;6.80;;;;;;;;;;5112427;28;20320;-73
2022/03/23 14:48:15;;;;;;;8.63;7.10;;;;;;;;;;5102005;28;20196;-73
2022/03/23 14:50:43;;;;;;;9.83;7.07;;;;;;;;;;5109977;28;20221;-73
2022/03/23 14:53:11;;;;;;;11.83;6.40;;;;;;;;;;5103832;28;20244;-73
2022/03/23 14:55:41;;;;;;;12.13;6.10;;;;;;;;;;5107910;28;20262;-73
2022/03/23 14:58:26;;;;;;;8.23;6.57;;;;;;;;;;5111325;28;20263;-73
2022/03/23 15:00:57;;;;;;;7.13;5.67;;;;;;;;;;5113288;28;20710;-73
2022/03/23 15:03:26;;;;;;;8.40;6.43;;;;;;;;;;5104102;28;20695;-73
2022/03/23 15:14:13;;;;;;;8.40;6.10;;;;;;;;;;5111442;28;20235;-72
2022/03/23 15:16:41;;;;;;;11.07;7.30;;;;;;;;;;5111385;28;20221;-73
2022/03/23 15:19:11;;;;;;;14.73;6.80;;;;;;;;;;5107573;28;20357;-72
2022/03/23 15:21:39;;;;;;;7.60;6.30;;;;;;;;;;5108348;28;20248;-72
2022/03/23 15:24:07;;;;;;;9.17;6.00;;;;;;;;;;5102271;28;20280;-73
2022/03/23 15:26:35;;;;;;;6.37;5.63;;;;;;;;;;5111797;28;20312;-73
2022/03/23 15:29:04;;;;;;;7.67;6.30;;;;;;;;;;5109123;28;20651;-72
2022/03/23 15:31:33;;;;;;;8.37;5.77;;;;;;;;;;5112607;28;20201;-73